Alagoinha, Brazil

2:57 PM BRT on May 27, 2015 (GMT -0300)
DEP. L. E. Magalhaes International | | Change Station
CLOSE
Current Station
Airport
Location: Salvador Airport,
Elevation: 20 ft
Nearby Weather Stations

Elev 20 ft 12.91 °S, 38.33 °W | Updated -129 second ago

Partly Cloudy
Partly Cloudy
84 °F
Feels Like 87 °F
N
9
Wind Variable Wind from SE

Today
High -- | Low -- °F
--% Chance of Precip.
Yesterday
High -- | Low -- °F
Precip. -- in
5:47 AM 5:15 PM
Waxing Gibbous, 69% visible
Pressure 29.98 in
Visibility 6.2 miles
Clouds Few 1700 ft
Heat Index 87 °F
Dew Point 68 °F
Humidity 58%
Rainfall 0.00 in
Snow Depth Not available.
UV 3 out of 12
Pollen Not available.
Air Quality Not available.
Flu Activity Not available.
METAR SBSV 271800Z 14008KT 9999 FEW017 29/20 Q1015

More Conditions Fewer Conditions

Pressure 29.98 in
Visibility 6.2 miles
Clouds Few 1700 ft
Heat Index 87 °F
Dew Point 68 °F
Humidity 58%
Rainfall 0.00 in
Snow Depth Not available.
UV 3 out of 12
Pollen Not available.
Air Quality Not available.
Flu Activity Not available.
METAR SBSV 271800Z 14008KT 9999 FEW017 29/20 Q1015

More Conditions Fewer Conditions

10-Day Weather Forecast

Almanac

Astronomy

May. 27, 2015 Rise Set
Actual Time
Civil Twilight
Nautical Twilight
Astronomical Twilight
Moon
Length of Visible Light
Length of Day
Tomorrow will be .
, % of the Moon is Illuminated

Today's Extremes

Country Highs Country Lows

Community

WunderPhotos

Upload Photos

1,824,733 photos uploaded!

WunderBlogs® & News

Nearby

Air Quality

  Air Quality AQ Index Pollutant
Not available.

Snow Depth

Station Depth Elevation

Earthquake Activity

City Distance Mag. Time & Date
Minimum magnitude displayed is 2.5.

Coastal Water Temperatures

Place Temperature

Stations

Nearby Weather Stations

Station Location Temp. Windchill Dew Point Humidity Wind Precip. Elev Updated Type